Terminal Aerodrome Forecast
Issued by NWS St Louis, MO

Home | Current Version | Previous Version | Text Only | Print | Product List | Glossary On
Versions: 1 2 3 4 5 6 7 8 9 10 11 12 13 14
620
FTUS43 KLSX 221513 AAA
TAFCOU
TAF AMD
KCOU 221513Z 2215/2312 08015KT P6SM SCT250
     FM230400 11010KT P6SM BKN110
     FM230700 13010KT P6SM -DZ BKN050=

USA.gov is the U.S. government's official web portal to all federal, state and local government web resources and services.